首页
METAR-TAF:

METAR-TAF

机场 :

Ozark, 阿拉巴马州, 美国

纬度: 31-17N, 经度: 085-43W, 海拔: 91米

当前天气观测

该预报发布于24分钟前的22:56 UTC
风速9节,风向西北
温度 16°C
湿度 59%
气压 1019 hPa
能見度: 16.1公里
天空无云

METAR: KOZR 262256Z AUTO 31009KT 10SM CLR 16/08 A3010 RMK AO2 SLP195 T01590076 $

时间: 18:20 (23:20 UTC)

预报

该预报发布于7小时和20分钟前的16:00 UTC
预报有效从26日的 16点(UTC)到 27日的 22点(UTC)
风速10节,风向北转西北,有时为15节阵风
能见度10公里或以上
散云层高于2500英尺
成为
从 26日的 21点(UTC)到 26日的 22点(UTC)
风速12节,风向北转西北
能見度: 8000
阴天层高于1500英尺
小阵雨
成为
从 27日的 00点(UTC)到 27日的 01点(UTC)
风速9节,风向北转东北
能见度10公里或以上
多云层高于3000英尺
成为
从 27日的 07点(UTC)到 27日的 08点(UTC)
风速9节,风向东北
能見度: 9000
阴天层高于2000英尺
小阵雨
成为
从 27日的 13点(UTC)到 27日的 14点(UTC)
风速10节,风向东转东北,有时为15节阵风
能见度10公里或以上
少量云层高于2500英尺

TAF: KOZR 261600Z 2616/2722 34010G15KT 9999 SCT025 QNH3005INS BECMG 2621/2622 33012KT 8000 -SHRA OVC015 QNH3008INS BECMG 2700/2701 02009KT 9999 NSW BKN030 QNH3013INS BECMG 2707/2708 05009KT 9000 -SHRA OVC020 QNH3017INS BECMG 2713/2714 06010G15KT 9999 NSW FEW025 QNH3028INS TX23/2621Z TN10/2712Z

超过4000个机场的气象观测和天气预报(METAR&TAF报告)。

可查询的气象台以黄色和红色小点在地图上表示。

将鼠标移到小点上方,可查看气象台名称。

然后点击查看天气观测和预报。

如需切换地图:点击带黑十字的绿色按钮放大地图;点击带横线的绿色按钮缩小地图;或者点击绿色箭头查看邻近地区的地图。


METAR-TAF: